TAF KLAW
KLAW 081725Z 0818/0918 16011KT P6SM SCT250 FM090200 17014G21KT P6SM BKN250 WS020/22045KT FM091200 24005KT P6SM BKN250=
METAR KLAW
WC KLAW
WS KLAW
WV KLAW